Station: Tasman Island  

  Atmospheric Gas Attenuation - ITU Rec 676-11   ----------------- dB/100km -----------------
Date Time Temp RH % AH g/m3 Dew Point Wind Direction Speed kph Gust kph Barometer mB Rainfall Since 9am 24GHz 47GHz 76GHz 122GHz 134GHz 241GHz
10/05 01:20 11.7 95 9.94 11 20 43 1025.2 0 22.6 29.3 47.1 123.8 120.9 416.9
10/05 01:10 11.8 95 10 11.1 22 39 1025.2 0 22.7 29.4 47.3 124.4 121.6 419.4
10/05 01:00 11.8 95 10 11 24 52 1025.2 0 22.7 29.4 47.3 124.4 121.6 419.4
10/05 00:50 11.8 95 10 11 20 35 1025.1 0 22.7 29.3 47.3 124.4 121.6 419.3
10/05 00:40 11.7 94 9.83 10.7 24 50 1025.1 0 22.3 29.1 46.7 122.6 119.3 411.3
10/05 00:30 11.7 94 9.83 10.8 28 52 1025 0 22.3 29.1 46.7 122.5 119.3 411.3
10/05 00:20 11.7 93 9.73 10.6 28 52 1024.9 0 22.1 28.9 46.2 121.4 117.9 406.3
10/05 00:10 11.6 93 9.67 10.5 30 46 1024.6 0 22.0 28.8 46.0 120.8 117.2 403.7
10/05 00:00 11.5 94 9.71 10.6 26 61 1024.4 0 22.1 28.9 46.2 121.4 117.9 406.2
09/05 23:50 11.6 94 9.77 10.6 24 50 1024.4 0 22.2 29.0 46.4 121.9 118.6 408.6
09/05 23:40 11.6 93 9.67 10.5 41 54 1024 0 22.0 28.8 46.0 120.7 117.1 403.5
09/05 23:30 11.7 93 9.73 10.6 26 57 1024.2 0 22.1 28.9 46.2 121.3 117.8 406.1
09/05 23:20 11.8 92 9.68 10.5 35 46 1024.1 0 22.0 28.7 45.9 120.5 117.0 403.0
09/05 23:10 11.8 93 9.79 10.7 24 43 1024 0 22.2 28.9 46.4 121.8 118.5 408.5
09/05 23:00 11.7 93 9.73 10.6 26 54 1024.2 0 22.1 28.9 46.2 121.3 117.8 406.1
09/05 22:50 11.8 92 9.68 10.5 28 52 1024.1 0 22.0 28.7 45.9 120.5 117.0 403.0
09/05 22:40 11.6 92 9.56 10.3 24 46 1024 0 21.7 28.6 45.5 119.5 115.5 398.1
09/05 22:30 11.6 91 9.46 10.2 28 52 1024.1 0 21.5 28.4 45.1 118.3 114.1 393.1
09/05 22:20 11.6 90 9.36 10 37 61 1023.9 0 21.3 28.2 44.6 117.1 112.7 388.1
09/05 22:10 11.6 89 9.25 9.8 35 48 1023.8 0 21.1 28.1 44.1 115.9 111.2 382.7
09/05 22:00 11.6 89 9.25 9.9 30 57 1023.8 0 21.1 28.1 44.1 115.9 111.2 382.7
09/05 21:50 11.7 90 9.41 10.1 33 61 1023.7 0 21.4 28.3 44.8 117.5 113.2 390.0
09/05 21:40 11.6 90 9.36 10 30 52 1023.6 0 21.3 28.2 44.6 117.1 112.7 388.0
09/05 21:30 11.5 90 9.3 9.9 28 63 1023.6 0 21.2 28.2 44.4 116.6 112.0 385.6
09/05 21:20 11.6 90 9.36 10 32 44 1023.6 0 21.3 28.2 44.6 117.1 112.7 388.0
09/05 21:10 11.4 89 9.14 9.6 22 30 1023.5 0 20.9 27.9 43.8 114.9 109.9 378.2
09/05 21:00 11.6 90 9.36 10 26 57 1023.3 0 21.3 28.2 44.6 117.1 112.7 387.9
09/05 20:50 11.6 87 9.04 9.6 24 46 1023.2 0 20.6 27.7 43.2 113.4 108.2 372.2
09/05 20:40 11.5 89 9.19 9.7 32 46 1023.2 0 21.0 28.0 43.9 115.3 110.4 380.0
09/05 20:30 11.5 89 9.19 9.8 28 54 1023.2 0 21.0 28.0 43.9 115.3 110.4 380.0
09/05 20:20 11.4 87 8.93 9.4 26 46 1023.1 0 20.4 27.5 42.9 112.5 106.9 367.8
09/05 20:10 11.5 89 9.19 9.7 33 54 1023 0 21.0 28.0 43.9 115.3 110.4 380.0
09/05 20:00 11.5 88 9.09 9.6 26 56 1022.9 0 20.7 27.8 43.5 114.1 109.0 375.1
09/05 19:50 11.4 87 8.93 9.3 26 46 1022.8 0 20.4 27.5 42.9 112.4 106.9 367.7
09/05 19:40 11.5 87 8.99 9.5 24 46 1022.9 0 20.5 27.6 43.1 113.0 107.6 370.2
09/05 19:30 11.4 87 8.93 9.3 28 54 1022.9 0 20.4 27.5 42.9 112.4 106.9 367.7
09/05 19:20 11.5 87 8.99 9.5 30 46 1022.8 0 20.5 27.6 43.1 113.0 107.6 370.2
09/05 19:10 11.5 87 8.99 9.4 32 54 1022.7 0 20.5 27.6 43.0 113.0 107.6 370.1
09/05 19:00 11.5 87 8.99 9.4 30 61 1022.8 0 20.5 27.6 43.1 113.0 107.6 370.2
09/05 18:50 11.6 86 8.94 9.3 35 56 1022.6 0 20.4 27.5 42.8 112.2 106.7 367.2
09/05 18:40 11.6 89 9.25 9.8 30 46 1022.5 0 21.1 28.0 44.1 115.7 111.0 382.3
09/05 18:30 11.8 87 9.16 9.7 30 57 1022.4 0 20.9 27.8 43.6 114.4 109.5 376.9
09/05 18:20 11.9 83 8.79 9.1 30 57 1022.2 0 20.1 27.1 42.0 110.1 104.2 358.4
09/05 18:10 11.8 85 8.95 9.3 32 54 1022.2 0 20.4 27.4 42.7 112.0 106.5 366.6
09/05 18:00 12 85 9.06 9.6 33 67 1022.2 0 20.7 27.5 43.0 113.0 107.8 371.0
09/05 17:50 12.1 83 8.9 9.4 41 57 1022 0 20.3 27.2 42.3 111.0 105.4 362.7
09/05 17:40 12 83 8.85 9.2 33 70 1022 0 20.2 27.2 42.2 110.6 104.9 360.8
09/05 17:30 12.1 82 8.79 9.1 33 70 1021.8 0 20.1 27.0 41.8 109.8 103.9 357.4
09/05 17:20 12.2 80 8.63 8.8 43 63 1021.6 0 19.7 26.7 41.1 107.8 101.6 349.2
09/05 17:10 12.2 81 8.74 9 28 41 1021.1 0 20.0 26.9 41.5 109.0 103.0 354.3
09/05 17:00 12.2 83 8.96 9.4 30 65 1020.9 0 20.4 27.3 42.5 111.4 106.0 364.8
09/05 16:50 12 82 8.74 9 32 59 1020.8 0 20.0 26.9 41.6 109.2 103.3 355.2
09/05 16:40 12 83 8.85 9.2 32 54 1020.8 0 20.2 27.1 42.1 110.5 104.8 360.4
09/05 16:30 11.8 85 8.95 9.4 39 78 1020.7 0 20.4 27.4 42.6 111.8 106.4 366.2
09/05 16:20 11.6 87 9.04 9.5 50 72 1020.6 0 20.6 27.6 43.1 113.1 107.9 371.5
09/05 16:10 12.1 87 9.33 10.1 33 57 1020.8 0 21.2 27.9 44.1 115.7 111.3 383.2
09/05 16:00 12.7 85 9.46 10.2 33 63 1020.9 0 21.5 27.9 44.3 116.3 112.2 386.6
09/05 15:50 13.2 79 9.07 9.6 20 35 1020.8 0 20.6 27.1 42.4 111.2 106.1 365.4
09/05 15:40 13.4 76 8.84 9.2 30 41 1020.6 0 20.1 26.7 41.3 108.4 102.7 353.5
09/05 15:30 13.7 77 9.12 9.7 26 46 1020.6 0 20.7 27.1 42.3 111.0 106.1 365.4
09/05 15:20 13.7 75 8.88 9.3 28 44 1020.6 0 20.2 26.7 41.3 108.4 102.9 354.0
09/05 15:10 13.5 80 9.36 10.1 30 44 1020.6 0 21.2 27.5 43.4 114.0 109.7 377.8
09/05 15:00 13.4 81 9.42 10.2 20 39 1020.5 0 21.4 27.6 43.7 114.8 110.6 381.1
09/05 14:50 13.4 80 9.3 10 19 50 1020.4 0 21.1 27.4 43.2 113.4 109.0 375.3
09/05 14:40 13 85 9.64 10.5 24 35 1020.4 0 21.8 28.1 44.8 117.8 114.2 393.7
09/05 14:30 13 86 9.75 10.7 28 54 1020.4 0 22.1 28.3 45.3 119.1 115.8 399.1
09/05 14:20 13 86 9.75 10.8 22 37 1020.4 0 22.1 28.3 45.3 119.1 115.8 399.1
09/05 14:10 13 86 9.75 10.8 22 32 1020.4 0 22.1 28.3 45.3 119.1 115.8 399.1
09/05 14:00 12.9 86 9.69 10.6 26 52 1020.4 0 22.0 28.3 45.1 118.5 115.1 396.7
09/05 13:50 12.9 84 9.47 10.2 20 37 1020.3 0 21.5 27.9 44.2 116.0 112.0 385.9
09/05 13:40 13.1 84 9.59 10.4 28 44 1020.4 0 21.7 28.0 44.6 117.1 113.4 390.8
09/05 13:30 13.7 82 9.71 10.7 17 37 1020.5 0 22.0 28.0 44.8 117.6 114.2 393.6
09/05 13:20 13.8 81 9.65 10.6 19 28 1020.5 0 21.8 27.9 44.4 116.7 113.2 390.2
09/05 13:10 13.8 81 9.65 10.6 22 33 1020.6 0 21.8 27.9 44.4 116.7 113.2 390.2
09/05 13:00 13.7 79 9.36 10.1 9 32 1020.5 0 21.2 27.5 43.3 113.7 109.4 376.8
09/05 12:50 13.7 81 9.59 10.5 11 19 1020.6 0 21.7 27.8 44.3 116.2 112.5 387.8
09/05 12:40 13.4 81 9.42 10.2 13 24 1020.6 0 21.4 27.6 43.7 114.8 110.6 381.1
09/05 12:30 13 82 9.3 10 15 44 1020.7 0 21.1 27.6 43.4 114.0 109.6 377.3
09/05 12:20 12.9 84 9.47 10.2 19 33 1020.7 0 21.5 27.9 44.2 116.1 112.0 386.0
09/05 12:10 13.2 82 9.42 10.2 20 33 1020.7 0 21.4 27.7 43.8 115.1 110.9 382.1
09/05 12:00 13.3 81 9.36 10.1 13 35 1020.8 0 21.2 27.6 43.5 114.3 110.0 378.8
09/05 11:50 13.3 80 9.24 9.9 7 19 1020.9 0 21.0 27.4 43.0 112.9 108.3 373.1
09/05 11:40 13.1 78 8.9 9.3 11 20 1020.9 0 20.3 26.9 41.7 109.5 104.0 357.8
09/05 11:30 13 77 8.73 9.1 13 33 1021 0 19.9 26.6 41.1 107.8 101.8 350.2
09/05 11:20 12.8 78 8.74 9 19 33 1021 0 19.9 26.7 41.2 108.1 102.2 351.6
09/05 11:10 12.8 76 8.51 8.8 11 32 1021 0 19.4 26.3 40.3 105.6 99.1 340.8
09/05 11:00 12.7 76 8.46 8.6 9 33 1021 0 19.3 26.3 40.1 105.2 98.6 338.8
09/05 10:50 12.6 74 8.19 8.1 9 20 1020.9 0 18.8 25.9 39.1 102.4 95.1 326.6
09/05 10:40 12.5 74 8.14 8 7 20 1020.9 0 18.7 25.8 38.9 102.0 94.5 324.7
09/05 10:30 12.5 75 8.25 8.2 11 33 1020.9 0 18.9 26.0 39.4 103.2 96.0 329.8
09/05 10:20 12.4 76 8.3 8.3 15 33 1020.9 0 19.0 26.1 39.6 103.9 96.8 332.6
09/05 10:10 12.4 75 8.2 8.1 13 37 1020.8 0 18.8 25.9 39.2 102.8 95.5 327.9
09/05 10:00 12.4 75 8.2 8.1 11 35 1020.8 0 18.8 25.9 39.2 102.8 95.5 327.9
09/05 09:50 12.4 76 8.3 8.4 13 26 1020.7 0 19.0 26.1 39.6 103.8 96.8 332.5
09/05 09:40 12.6 79 8.74 9 6 7 1020.8 0 19.9 26.8 41.3 108.4 102.5 352.5
09/05 09:30 12.5 77 8.47 8.6 9 22 1020.7 0 19.4 26.3 40.3 105.6 98.9 340.1
09/05 09:20 12.4 74 8.09 7.9 11 37 1020.5 0 18.6 25.7 38.8 101.6 94.0 322.7
09/05 09:10 12.3 76 8.25 8.2 6 11 1020.6 0 18.9 26.0 39.5 103.4 96.2 330.6
09/05 09:00 12.2 78 8.42 8.5 9 39 1020.6 0 19.3 26.3 40.2 105.4 98.6 339.0
09/05 08:50 12.1 78 8.37 8.5 13 37 1020.6 0.4 19.2 26.3 40.1 105.0 98.1 337.1

Last Refresh: 10-May-2026 00:55:22

Bureau of Meteorology